Time;durP1;ratioP1;P1;durP2;ratioP2;P2;SDS_P1;SDS_P2;PMS_P1;PMS_P2;Temp;Humidity;BMP_temperature;BMP_pressure;BME280_temperature;BME280_humidity;BME280_pressure;Samples;Min_cycle;Max_cycle;Signal;HPM_P1;HPM_P2
2023/08/03 00:00:46;;;;;;;13.32;2.75;;;17.30;93.10;;;;;;5032130;28;20025;-77
2023/08/03 00:03:15;;;;;;;14.32;2.78;;;17.20;93.10;;;;;;5022090;28;20041;-77
2023/08/03 00:05:40;;;;;;;11.10;2.58;;;17.30;92.70;;;;;;5030108;28;20030;-77
2023/08/03 00:08:06;;;;;;;13.60;3.08;;;17.40;92.50;;;;;;5033810;28;20104;-79
2023/08/03 00:10:32;;;;;;;14.77;3.10;;;17.30;92.70;;;;;;5033063;28;20028;-78
2023/08/03 00:12:58;;;;;;;11.85;2.80;;;17.30;92.70;;;;;;5036831;28;20414;-80
2023/08/03 00:15:26;;;;;;;10.75;2.40;;;17.20;92.90;;;;;;5031654;28;20034;-79
2023/08/03 00:17:52;;;;;;;11.68;2.47;;;17.20;92.50;;;;;;5034114;28;20029;-79
2023/08/03 00:20:18;;;;;;;11.50;2.58;;;17.20;92.50;;;;;;5034949;28;20095;-79
2023/08/03 00:22:46;;;;;;;12.32;2.80;;;17.10;92.80;;;;;;5035733;28;20034;-80
2023/08/03 00:25:11;;;;;;;11.73;2.50;;;17.10;92.70;;;;;;5036815;28;20369;-78
2023/08/03 00:27:37;;;;;;;13.25;2.72;;;17.10;92.10;;;;;;5036011;28;20113;-79
2023/08/03 00:30:03;;;;;;;10.48;2.63;;;17.20;91.80;;;;;;5036700;28;20040;-78
2023/08/03 00:32:28;;;;;;;9.93;2.30;;;17.20;91.70;;;;;;5036841;28;20112;-79
2023/08/03 00:34:55;;;;;;;9.50;2.30;;;17.20;91.70;;;;;;5035624;28;20105;-80
2023/08/03 00:37:21;;;;;;;16.23;2.75;;;17.20;91.20;;;;;;5035705;28;20047;-80
2023/08/03 00:39:49;;;;;;;11.77;2.90;;;17.20;91.50;;;;;;5036527;28;20022;-79
2023/08/03 00:42:15;;;;;;;10.85;2.22;;;17.20;91.50;;;;;;5036553;28;20037;-80
2023/08/03 00:44:41;;;;;;;9.80;2.25;;;17.10;91.70;;;;;;5036669;28;20476;-79
2023/08/03 00:47:06;;;;;;;12.65;2.53;;;17.10;91.80;;;;;;5035575;28;20037;-79
2023/08/03 00:49:32;;;;;;;12.15;1.98;;;17.00;91.80;;;;;;5035942;28;20025;-79
2023/08/03 00:51:58;;;;;;;9.63;2.08;;;17.00;91.70;;;;;;5034511;28;20021;-79
2023/08/03 00:54:24;;;;;;;7.97;2.00;;;17.00;91.40;;;;;;5036535;28;20064;-79
2023/08/03 00:56:50;;;;;;;8.18;2.28;;;17.10;90.40;;;;;;5035193;28;20084;-80
2023/08/03 00:59:15;;;;;;;12.98;2.13;;;17.20;90.00;;;;;;5035522;28;20352;-79
2023/08/03 01:01:41;;;;;;;9.52;2.03;;;17.20;89.60;;;;;;5033774;28;20028;-79
2023/08/03 01:04:07;;;;;;;8.13;2.08;;;17.20;89.60;;;;;;5026499;28;20072;-79
2023/08/03 01:06:32;;;;;;;8.20;1.83;;;17.20;89.80;;;;;;5032924;28;20041;-80
2023/08/03 01:09:00;;;;;;;10.30;2.22;;;17.20;89.70;;;;;;5034303;28;20030;-79
2023/08/03 01:11:26;;;;;;;8.68;1.90;;;17.20;89.60;;;;;;5036337;28;20022;-78
2023/08/03 01:13:53;;;;;;;11.18;2.38;;;17.10;89.70;;;;;;5036012;28;20410;-80
2023/08/03 01:16:18;;;;;;;8.13;2.00;;;17.10;89.50;;;;;;5034297;28;20083;-80
2023/08/03 01:18:44;;;;;;;9.95;1.98;;;17.10;89.70;;;;;;5034837;28;20029;-79
2023/08/03 01:21:11;;;;;;;13.93;2.50;;;17.10;89.70;;;;;;5032680;28;20100;-79
2023/08/03 01:23:37;;;;;;;9.02;2.10;;;17.10;89.80;;;;;;5033582;28;20136;-80
2023/08/03 01:26:02;;;;;;;7.57;1.90;;;17.10;89.50;;;;;;5034229;28;20604;-79
2023/08/03 01:28:28;;;;;;;13.48;2.10;;;17.10;89.30;;;;;;5033378;28;20068;-80
2023/08/03 01:30:53;;;;;;;9.70;2.40;;;17.10;89.60;;;;;;5035705;28;20402;-81
2023/08/03 01:33:19;;;;;;;9.05;2.03;;;17.00;89.70;;;;;;5035003;28;20022;-79
2023/08/03 01:35:45;;;;;;;12.35;2.97;;;17.00;89.90;;;;;;5032062;28;20076;-79
2023/08/03 01:38:13;;;;;;;7.15;1.92;;;16.90;90.20;;;;;;5020485;28;20034;-79
2023/08/03 01:40:39;;;;;;;9.88;2.17;;;17.00;90.00;;;;;;5031064;28;20452;-79
2023/08/03 01:43:05;;;;;;;10.13;1.77;;;17.00;89.80;;;;;;5032262;28;20109;-80
2023/08/03 01:45:30;;;;;;;10.00;2.20;;;17.00;89.70;;;;;;5034880;28;20112;-80
2023/08/03 01:47:56;;;;;;;9.02;2.20;;;17.00;90.00;;;;;;5032994;28;20034;-80
2023/08/03 01:50:21;;;;;;;10.07;1.80;;;17.00;89.70;;;;;;5029708;28;20030;-80
2023/08/03 01:52:48;;;;;;;9.77;2.13;;;17.00;90.20;;;;;;5047044;28;20105;-79
2023/08/03 01:55:14;;;;;;;9.68;2.00;;;17.00;89.50;;;;;;5033337;28;20030;-80
2023/08/03 01:57:39;;;;;;;8.00;2.00;;;17.10;89.40;;;;;;5031453;28;20364;-79
2023/08/03 02:00:08;;;;;;;8.45;1.95;;;17.00;89.70;;;;;;5030155;28;20032;-78
2023/08/03 02:02:34;;;;;;;7.70;1.55;;;16.90;89.90;;;;;;5034513;28;20416;-79
2023/08/03 02:04:59;;;;;;;7.47;1.95;;;16.90;90.20;;;;;;5035758;28;20112;-79
2023/08/03 02:07:43;;;;;;;10.25;2.03;;;16.90;89.90;;;;;;5036487;28;20088;-80
2023/08/03 02:10:10;;;;;;;11.77;2.05;;;16.80;90.40;;;;;;5036748;28;20030;-79
2023/08/03 02:12:35;;;;;;;13.50;2.05;;;16.80;90.60;;;;;;5037282;28;20066;-79
2023/08/03 02:15:06;;;;;;;10.10;2.13;;;16.80;90.60;;;;;;5037282;28;20029;-79
2023/08/03 02:17:32;;;;;;;6.60;1.90;;;16.80;90.50;;;;;;5032117;28;20038;-79
2023/08/03 02:19:58;;;;;;;7.88;1.83;;;16.80;90.50;;;;;;5037149;28;20032;-78
2023/08/03 02:22:24;;;;;;;10.90;2.40;;;16.80;90.40;;;;;;5036971;28;20045;-78
2023/08/03 02:24:49;;;;;;;14.18;2.55;;;16.80;90.10;;;;;;5039094;28;20025;-79
2023/08/03 02:27:15;;;;;;;9.52;1.95;;;16.90;90.00;;;;;;5035522;28;20373;-77
2023/08/03 02:29:40;;;;;;;10.60;2.28;;;16.90;89.80;;;;;;5036406;28;20095;-79
2023/08/03 02:32:06;;;;;;;9.48;2.00;;;16.90;89.50;;;;;;5037517;28;21012;-80
2023/08/03 02:34:32;;;;;;;14.75;3.10;;;16.90;89.50;;;;;;5036380;28;20060;-79
2023/08/03 02:36:57;;;;;;;9.30;1.92;;;16.90;89.50;;;;;;5034791;28;20037;-80
2023/08/03 02:39:23;;;;;;;12.82;2.40;;;16.90;89.40;;;;;;5036769;28;20033;-80
2023/08/03 02:41:48;;;;;;;10.75;2.20;;;16.80;89.70;;;;;;5035512;28;20033;-79
2023/08/03 02:44:14;;;;;;;10.05;2.30;;;16.80;89.40;;;;;;5037003;28;20372;-80
2023/08/03 02:46:40;;;;;;;13.85;2.10;;;16.80;89.70;;;;;;5036236;28;20307;-80
2023/08/03 02:49:06;;;;;;;9.23;2.33;;;16.80;89.30;;;;;;5036033;28;20056;-80
2023/08/03 02:51:32;;;;;;;9.90;2.20;;;16.80;89.40;;;;;;5034421;28;20034;-78
2023/08/03 02:53:57;;;;;;;8.07;1.77;;;16.80;89.60;;;;;;5035375;28;20021;-77
2023/08/03 02:56:23;;;;;;;11.52;2.15;;;16.80;89.30;;;;;;5035287;28;20030;-76
2023/08/03 02:58:48;;;;;;;7.45;1.65;;;16.80;89.50;;;;;;5036260;28;20314;-76
2023/08/03 03:01:14;;;;;;;6.57;1.55;;;16.80;89.80;;;;;;5037702;28;20321;-77
2023/08/03 03:03:39;;;;;;;12.13;2.20;;;16.80;89.50;;;;;;5035756;28;20034;-76
2023/08/03 03:06:05;;;;;;;9.60;1.55;;;16.70;89.90;;;;;;5032690;28;20064;-78
2023/08/03 03:08:31;;;;;;;10.77;1.95;;;16.70;89.50;;;;;;5036196;28;20455;-78
2023/08/03 03:10:57;;;;;;;9.93;2.03;;;16.70;89.70;;;;;;5037727;28;20025;-78
2023/08/03 03:13:23;;;;;;;9.18;1.80;;;16.70;89.30;;;;;;5037278;28;20037;-78
2023/08/03 03:15:49;;;;;;;6.55;1.75;;;16.80;89.00;;;;;;5037818;28;20026;-78
2023/08/03 03:18:14;;;;;;;9.25;1.85;;;16.80;88.70;;;;;;5036737;28;20029;-76
2023/08/03 03:20:40;;;;;;;6.80;1.65;;;16.80;88.70;;;;;;5036444;28;20075;-78
2023/08/03 03:23:05;;;;;;;7.38;1.45;;;16.80;88.90;;;;;;5037807;28;20025;-78
2023/08/03 03:25:31;;;;;;;7.22;1.60;;;16.80;89.00;;;;;;5036869;28;20030;-79
2023/08/03 03:28:03;;;;;;;8.63;1.80;;;16.70;89.20;;;;;;5027254;28;20022;-78
2023/08/03 03:30:29;;;;;;;6.32;1.20;;;16.70;89.70;;;;;;5037046;28;20017;-81
2023/08/03 03:32:55;;;;;;;6.88;1.48;;;16.60;89.70;;;;;;5036691;28;20032;-80
2023/08/03 03:35:20;;;;;;;9.27;1.25;;;16.60;90.20;;;;;;5036502;28;20022;-82
2023/08/03 03:37:46;;;;;;;9.43;2.20;;;16.50;90.70;;;;;;5035657;28;20040;-82
2023/08/03 03:40:12;;;;;;;7.20;1.40;;;16.40;91.10;;;;;;5034200;28;20087;-80
2023/08/03 03:42:37;;;;;;;10.18;1.67;;;16.30;91.60;;;;;;5034104;28;20022;-82
2023/08/03 03:45:03;;;;;;;6.35;1.58;;;16.20;92.50;;;;;;5036712;28;20022;-82
2023/08/03 03:47:31;;;;;;;6.80;1.42;;;16.10;93.00;;;;;;5034205;28;20033;-87
2023/08/03 03:49:57;;;;;;;8.77;1.63;;;16.00;93.40;;;;;;5024781;28;20029;-84
2023/08/03 03:52:22;;;;;;;7.22;1.42;;;15.90;94.00;;;;;;5035385;28;20029;-84
2023/08/03 03:54:48;;;;;;;9.75;1.65;;;15.80;94.20;;;;;;5034453;28;20032;-82
2023/08/03 03:57:13;;;;;;;8.90;1.33;;;15.80;94.20;;;;;;5035482;28;20034;-80
2023/08/03 03:59:39;;;;;;;4.70;1.38;;;15.90;94.10;;;;;;5033799;28;20029;-82
2023/08/03 04:02:04;;;;;;;8.43;1.77;;;15.90;94.20;;;;;;5035594;28;20029;-79
2023/08/03 04:04:30;;;;;;;6.10;1.48;;;15.90;94.20;;;;;;5035562;28;20108;-82
2023/08/03 04:06:56;;;;;;;6.40;1.60;;;15.90;94.30;;;;;;5034622;28;20052;-81
2023/08/03 04:09:21;;;;;;;6.95;1.30;;;15.80;94.60;;;;;;5035055;28;20045;-82
2023/08/03 04:11:47;;;;;;;5.03;1.30;;;15.80;94.50;;;;;;5035135;28;20461;-81
2023/08/03 04:14:12;;;;;;;5.95;1.50;;;15.80;94.40;;;;;;5034992;28;20029;-81
2023/08/03 04:16:38;;;;;;;7.25;1.80;;;15.90;94.20;;;;;;5035095;28;20041;-82
2023/08/03 04:19:03;;;;;;;9.95;1.75;;;15.90;94.20;;;;;;5034937;28;20056;-81
2023/08/03 04:21:29;;;;;;;7.30;1.20;;;15.90;94.40;;;;;;5032126;28;20052;-83
2023/08/03 04:23:55;;;;;;;5.82;1.23;;;15.80;94.80;;;;;;5035719;28;20369;-78
2023/08/03 04:26:20;;;;;;;5.68;1.08;;;15.70;95.30;;;;;;5034255;28;20029;-78
2023/08/03 04:28:46;;;;;;;6.90;1.50;;;15.70;95.40;;;;;;5034791;28;20025;-79
2023/08/03 04:31:12;;;;;;;6.22;1.15;;;15.60;95.30;;;;;;5035330;28;20049;-79
2023/08/03 04:33:37;;;;;;;4.90;1.00;;;15.60;95.30;;;;;;5035119;28;20095;-78
2023/08/03 04:36:03;;;;;;;4.90;1.50;;;15.60;95.60;;;;;;5032743;28;20441;-79
2023/08/03 04:38:28;;;;;;;6.93;1.38;;;15.50;95.70;;;;;;5031970;28;20061;-80
2023/08/03 04:40:54;;;;;;;4.72;1.30;;;15.40;96.00;;;;;;5033785;28;20112;-80
2023/08/03 04:43:20;;;;;;;6.10;1.20;;;15.30;95.80;;;;;;5033253;28;20038;-78
2023/08/03 04:45:45;;;;;;;6.50;1.38;;;15.30;96.00;;;;;;5032094;28;20426;-78
2023/08/03 04:48:11;;;;;;;5.68;1.30;;;15.30;95.80;;;;;;5035280;28;20112;-79
2023/08/03 04:50:37;;;;;;;5.47;1.17;;;15.30;95.90;;;;;;5031168;28;20032;-80
2023/08/03 04:53:02;;;;;;;7.13;1.60;;;15.30;95.50;;;;;;5032971;28;20030;-80
2023/08/03 04:55:28;;;;;;;8.77;1.60;;;15.30;95.00;;;;;;5033020;28;20323;-79
2023/08/03 04:57:53;;;;;;;7.10;1.50;;;15.30;94.80;;;;;;5032803;28;20317;-80
2023/08/03 05:00:19;;;;;;;7.85;1.52;;;15.40;94.20;;;;;;5032488;28;20033;-81
2023/08/03 05:02:45;;;;;;;7.65;1.48;;;15.50;93.80;;;;;;5033730;28;20029;-81
2023/08/03 05:05:13;;;;;;;6.53;1.27;;;15.50;93.60;;;;;;5033595;28;20057;-84
2023/08/03 05:07:39;;;;;;;6.50;1.40;;;15.50;93.50;;;;;;5033822;28;20091;-82
2023/08/03 05:10:04;;;;;;;6.75;1.13;;;15.60;93.20;;;;;;5036044;28;20425;-83
2023/08/03 05:12:30;;;;;;;7.05;1.58;;;15.50;93.30;;;;;;5035917;28;20296;-80
2023/08/03 05:14:56;;;;;;;10.38;1.42;;;15.50;93.30;;;;;;5034752;28;20021;-85
2023/08/03 05:17:21;;;;;;;7.13;1.33;;;15.60;92.90;;;;;;5034900;28;20033;-82
2023/08/03 05:19:47;;;;;;;8.05;1.27;;;15.60;92.30;;;;;;5035164;28;20033;-83
2023/08/03 05:22:13;;;;;;;10.43;1.55;;;15.70;91.80;;;;;;5035478;28;20092;-83
2023/08/03 05:24:38;;;;;;;5.90;1.23;;;15.80;91.20;;;;;;5036077;28;20030;-82
2023/08/03 05:27:04;;;;;;;8.80;1.80;;;15.80;91.10;;;;;;5034424;28;20029;-83
2023/08/03 05:29:30;;;;;;;5.20;1.10;;;15.80;90.70;;;;;;5035586;28;20173;-81
2023/08/03 05:31:55;;;;;;;5.20;1.20;;;15.90;90.10;;;;;;5034738;28;20032;-84
2023/08/03 05:34:21;;;;;;;10.00;1.60;;;15.90;90.60;;;;;;5035882;28;20026;-86
2023/08/03 05:36:51;;;;;;;5.57;1.30;;;15.90;90.30;;;;;;5030283;28;20493;-86
2023/08/03 05:39:17;;;;;;;10.52;1.67;;;15.90;89.90;;;;;;5034062;28;20103;-85
2023/08/03 05:41:42;;;;;;;6.63;1.10;;;15.90;90.20;;;;;;5031996;28;20093;-84
2023/08/03 05:44:11;;;;;;;5.18;1.20;;;16.00;90.10;;;;;;5032999;28;20037;-84
2023/08/03 05:46:37;;;;;;;7.13;1.38;;;16.00;90.60;;;;;;5030307;28;20037;-85
2023/08/03 05:49:02;;;;;;;5.00;1.13;;;15.90;90.60;;;;;;5032264;28;20030;-81
2023/08/03 05:51:28;;;;;;;4.40;1.10;;;16.00;89.90;;;;;;5028427;28;20032;-82
2023/08/03 05:53:55;;;;;;;3.33;1.10;;;16.00;90.40;;;;;;5030394;28;20048;-80
2023/08/03 05:56:21;;;;;;;9.05;1.05;;;16.10;90.20;;;;;;5033652;28;20030;-83
2023/08/03 05:58:51;;;;;;;5.68;1.13;;;16.10;89.90;;;;;;5029079;28;20034;-83
2023/08/03 06:01:25;;;;;;;6.50;1.30;;;16.10;90.30;;;;;;5033810;28;20517;-83
2023/08/03 06:03:55;;;;;;;7.88;1.30;;;16.00;90.70;;;;;;5028430;28;20037;-81
2023/08/03 06:06:22;;;;;;;7.55;1.33;;;16.00;90.50;;;;;;5030731;28;20441;-84
2023/08/03 06:08:57;;;;;;;6.38;1.30;;;16.00;90.30;;;;;;5030482;28;20044;-84
2023/08/03 06:11:24;;;;;;;6.03;1.27;;;16.10;90.70;;;;;;5028609;28;20029;-83
2023/08/03 06:13:51;;;;;;;4.93;1.25;;;16.10;90.80;;;;;;5028671;28;20112;-84
2023/08/03 06:16:16;;;;;;;5.55;0.93;;;16.10;90.40;;;;;;5032480;28;20064;-83
2023/08/03 06:18:57;;;;;;;6.18;1.25;;;16.10;90.50;;;;;;5030055;28;20053;-84
2023/08/03 06:21:23;;;;;;;4.05;1.00;;;16.20;90.80;;;;;;5023812;28;20026;-84
2023/08/03 06:23:52;;;;;;;6.35;1.38;;;16.20;90.80;;;;;;5028160;28;20052;-81
2023/08/03 06:26:19;;;;;;;3.75;1.05;;;16.30;90.40;;;;;;5028900;28;20037;-83
2023/08/03 06:28:46;;;;;;;4.60;1.00;;;16.30;90.70;;;;;;5030367;28;20028;-87
2023/08/03 06:31:18;;;;;;;5.15;1.25;;;16.30;90.00;;;;;;5029334;28;20026;-85
2023/08/03 06:33:46;;;;;;;5.38;1.33;;;16.40;89.90;;;;;;5017085;28;20300;-87
2023/08/03 06:36:27;;;;;;;7.05;1.20;;;16.50;88.90;;;;;;5032803;28;20469;-87
2023/08/03 06:38:54;;;;;;;4.15;0.95;;;16.50;88.70;;;;;;5029521;28;20038;-84
2023/08/03 06:41:20;;;;;;;4.40;1.25;;;16.60;88.00;;;;;;5035215;28;20025;-83
2023/08/03 06:43:46;;;;;;;5.03;0.90;;;16.70;87.90;;;;;;5031691;28;20078;-85
2023/08/03 06:46:12;;;;;;;4.80;1.10;;;16.70;87.90;;;;;;5032936;28;20441;-85
2023/08/03 06:48:38;;;;;;;5.70;1.30;;;16.70;87.70;;;;;;5031064;28;20358;-85
2023/08/03 06:51:04;;;;;;;6.63;1.30;;;16.80;87.70;;;;;;5027895;28;20028;-85
2023/08/03 06:53:31;;;;;;;5.57;1.30;;;16.90;87.90;;;;;;5035970;28;20025;-84
2023/08/03 06:55:56;;;;;;;4.93;1.20;;;16.90;86.90;;;;;;5035464;28;20033;-86
2023/08/03 06:58:22;;;;;;;4.75;1.20;;;16.90;87.20;;;;;;5031745;28;20049;-86
2023/08/03 07:00:48;;;;;;;5.65;1.25;;;17.00;87.70;;;;;;5034243;28;20057;-85
2023/08/03 07:03:14;;;;;;;3.75;1.02;;;17.10;87.10;;;;;;5034090;28;20033;-84
2023/08/03 07:05:40;;;;;;;3.58;1.00;;;17.10;85.90;;;;;;5031906;28;20488;-85
2023/08/03 07:08:06;;;;;;;5.13;1.10;;;17.10;85.60;;;;;;5034493;28;20037;-84
2023/08/03 07:10:33;;;;;;;4.95;1.38;;;17.10;85.60;;;;;;5035746;28;20087;-85
2023/08/03 07:12:58;;;;;;;4.93;1.05;;;17.20;85.20;;;;;;5036320;28;20021;-82
2023/08/03 07:15:24;;;;;;;6.47;1.83;;;17.10;84.80;;;;;;5036231;28;20030;-82
2023/08/03 07:17:50;;;;;;;5.20;1.27;;;17.00;85.60;;;;;;5034898;28;20044;-90
2023/08/03 07:20:17;;;;;;;4.28;1.13;;;16.90;85.50;;;;;;5030864;28;20047;-86
2023/08/03 07:22:45;;;;;;;3.72;1.00;;;17.10;85.90;;;;;;5032594;28;20128;-88
2023/08/03 07:25:11;;;;;;;5.70;1.13;;;17.50;84.80;;;;;;5037370;28;20032;-86
2023/08/03 07:27:40;;;;;;;4.43;1.20;;;17.60;84.60;;;;;;5037094;28;20403;-87
2023/08/03 07:30:07;;;;;;;6.15;1.30;;;17.50;84.40;;;;;;5035267;28;20017;-86
2023/08/03 07:32:34;;;;;;;4.43;1.00;;;17.50;85.00;;;;;;5033887;28;20087;-87
2023/08/03 07:34:59;;;;;;;3.88;0.90;;;17.40;84.50;;;;;;5036674;28;20018;-86
2023/08/03 07:37:25;;;;;;;4.05;1.10;;;17.20;85.30;;;;;;5036900;28;20415;-84
2023/08/03 07:39:51;;;;;;;22.63;1.83;;;17.10;86.00;;;;;;5037857;28;20025;-86
2023/08/03 07:42:16;;;;;;;3.25;0.82;;;17.20;85.70;;;;;;5033495;28;20108;-86
2023/08/03 07:44:42;;;;;;;5.65;1.25;;;17.30;86.50;;;;;;5033796;28;20023;-86
2023/08/03 07:47:08;;;;;;;4.20;1.00;;;17.60;86.30;;;;;;5035057;28;20053;-87
2023/08/03 07:49:33;;;;;;;3.83;0.90;;;17.60;85.10;;;;;;5035977;28;20031;-86
2023/08/03 07:51:59;;;;;;;7.93;1.10;;;17.50;85.30;;;;;;5035516;28;20100;-87
2023/08/03 07:54:24;;;;;;;4.40;1.10;;;17.60;85.70;;;;;;5033930;28;20076;-90
2023/08/03 07:56:50;;;;;;;5.43;1.10;;;17.60;84.70;;;;;;5035745;28;20048;-89
2023/08/03 07:59:16;;;;;;;7.03;1.20;;;17.60;85.30;;;;;;5033942;28;20022;-85
2023/08/03 08:01:43;;;;;;;4.53;1.30;;;17.40;85.20;;;;;;5035131;28;20025;-86
2023/08/03 08:04:09;;;;;;;5.43;1.10;;;17.30;85.90;;;;;;5036302;28;20037;-85
2023/08/03 08:06:35;;;;;;;5.05;0.90;;;17.40;85.40;;;;;;5033872;28;20422;-85
2023/08/03 08:09:00;;;;;;;5.28;0.90;;;17.40;86.00;;;;;;5036284;28;20087;-85
2023/08/03 08:11:28;;;;;;;4.70;0.98;;;17.60;85.70;;;;;;5033198;28;20024;-84
2023/08/03 08:13:57;;;;;;;4.85;1.23;;;17.90;85.70;;;;;;5021895;28;20030;-84
2023/08/03 08:16:22;;;;;;;3.63;0.80;;;18.00;85.00;;;;;;5034457;28;20018;-85
2023/08/03 08:18:48;;;;;;;6.15;1.20;;;17.70;85.30;;;;;;5037109;28;20059;-84
2023/08/03 08:21:14;;;;;;;3.38;0.90;;;17.80;85.60;;;;;;5033445;28;20033;-85
2023/08/03 08:23:40;;;;;;;4.20;1.10;;;17.80;85.10;;;;;;5029969;28;20026;-84
2023/08/03 08:26:13;;;;;;;4.07;1.05;;;17.60;85.30;;;;;;5033875;28;20065;-84
2023/08/03 08:28:43;;;;;;;2.78;0.90;;;17.60;85.70;;;;;;5034753;28;20017;-84
2023/08/03 08:31:09;;;;;;;5.57;1.17;;;17.40;85.90;;;;;;5033390;28;20092;-86
2023/08/03 08:33:35;;;;;;;6.97;1.15;;;17.40;86.10;;;;;;5032261;28;20017;-86
2023/08/03 08:36:01;;;;;;;6.88;1.20;;;17.40;85.90;;;;;;5032817;28;20056;-86
2023/08/03 08:38:26;;;;;;;4.43;1.02;;;17.40;86.00;;;;;;5034693;28;20025;-85
2023/08/03 08:40:52;;;;;;;2.22;0.75;;;17.50;85.90;;;;;;5033863;28;20033;-86
2023/08/03 08:43:19;;;;;;;5.60;0.95;;;17.40;85.60;;;;;;5036536;28;20075;-86
2023/08/03 08:45:44;;;;;;;4.68;0.80;;;17.40;86.10;;;;;;5033126;28;20022;-83
2023/08/03 08:48:10;;;;;;;10.45;1.70;;;17.70;85.10;;;;;;5036650;28;20028;-83
2023/08/03 08:50:36;;;;;;;4.50;0.93;;;18.00;84.30;;;;;;5032791;28;20033;-84
2023/08/03 08:53:01;;;;;;;2.78;0.80;;;18.20;84.40;;;;;;5033873;28;20318;-85
2023/08/03 08:55:29;;;;;;;3.30;0.80;;;18.60;83.30;;;;;;5033636;28;20046;-85
2023/08/03 08:57:56;;;;;;;4.85;1.05;;;18.50;82.40;;;;;;5032770;28;20025;-87
2023/08/03 09:00:26;;;;;;;4.22;1.00;;;18.50;83.00;;;;;;5035144;28;20120;-87
2023/08/03 09:02:56;;;;;;;3.05;0.90;;;18.60;82.60;;;;;;5031787;28;20172;-86
2023/08/03 09:05:27;;;;;;;8.32;0.90;;;18.60;83.10;;;;;;5031297;28;20021;-86
2023/08/03 09:08:04;;;;;;;3.38;0.90;;;18.70;81.80;;;;;;5033372;28;20454;-87
2023/08/03 09:10:30;;;;;;;3.67;0.90;;;18.80;82.50;;;;;;5033364;28;20311;-86
2023/08/03 09:12:57;;;;;;;3.90;1.13;;;18.80;81.90;;;;;;5034419;28;20032;-85
2023/08/03 09:15:42;;;;;;;5.30;1.13;;;18.60;82.50;;;;;;5020829;28;20040;-85
2023/08/03 09:18:07;;;;;;;;;;;18.50;82.20;;;;;;5031393;28;20139;-85
2023/08/03 09:20:34;;;;;;;5.28;0.95;;;18.20;83.20;;;;;;5033962;28;19964;-83
2023/08/03 09:23:01;;;;;;;2.83;0.70;;;18.20;83.00;;;;;;5035346;28;20029;-84
2023/08/03 09:25:28;;;;;;;6.15;0.80;;;18.30;82.30;;;;;;5034029;28;20033;-84
2023/08/03 09:27:55;;;;;;;3.15;0.60;;;18.20;82.70;;;;;;5034347;28;20306;-83
2023/08/03 09:30:22;;;;;;;3.67;0.85;;;18.30;83.20;;;;;;5033731;28;20028;-84
2023/08/03 09:32:48;;;;;;;2.80;0.90;;;18.50;82.90;;;;;;5034016;28;20022;-84
2023/08/03 09:35:24;;;;;;;4.15;0.90;;;19.30;81.50;;;;;;5032837;28;20428;-84
2023/08/03 09:37:52;;;;;;;3.28;1.00;;;19.80;80.40;;;;;;5034147;28;20025;-82
2023/08/03 09:40:19;;;;;;;4.18;0.80;;;19.80;79.20;;;;;;5033651;28;20492;-81
2023/08/03 09:42:47;;;;;;;4.47;0.70;;;19.60;79.50;;;;;;5032347;28;20030;-84
2023/08/03 09:45:13;;;;;;;3.45;1.02;;;19.60;79.80;;;;;;5034699;28;20053;-83
2023/08/03 09:47:39;;;;;;;3.30;1.15;;;19.70;79.20;;;;;;5034404;28;20091;-80
2023/08/03 09:50:09;;;;;;;2.75;0.80;;;19.80;79.50;;;;;;5025082;28;20357;-82
2023/08/03 09:52:54;;;;;;;5.95;0.88;;;20.00;78.60;;;;;;5030050;28;20108;-83
2023/08/03 09:55:41;;;;;;;3.72;0.85;;;20.70;77.50;;;;;;5030065;28;20386;-81
2023/08/03 09:58:08;;;;;;;6.60;1.23;;;21.10;76.40;;;;;;5029629;28;20400;-82
2023/08/03 10:00:34;;;;;;;3.95;0.80;;;21.30;76.40;;;;;;5028103;28;20040;-82
2023/08/03 10:03:10;;;;;;;5.32;0.85;;;22.00;75.10;;;;;;5031593;28;20445;-80
2023/08/03 10:05:40;;;;;;;2.72;0.70;;;22.00;74.20;;;;;;5031874;28;20104;-83
2023/08/03 10:08:13;;;;;;;2.63;0.70;;;21.80;74.30;;;;;;5031201;28;20150;-82
2023/08/03 10:10:48;;;;;;;2.67;0.70;;;21.80;74.80;;;;;;5031717;28;20044;-82
2023/08/03 10:13:14;;;;;;;4.15;0.77;;;21.70;75.10;;;;;;5031521;28;20029;-83
2023/08/03 10:15:41;;;;;;;3.00;0.90;;;22.20;73.70;;;;;;5030500;28;20048;-81
2023/08/03 10:18:07;;;;;;;2.47;0.68;;;22.40;73.50;;;;;;5034263;28;20056;-84
2023/08/03 10:20:36;;;;;;;3.95;0.82;;;22.20;73.30;;;;;;5028147;28;20520;-82
2023/08/03 10:23:09;;;;;;;3.45;0.95;;;21.20;75.60;;;;;;5031791;28;20428;-83
2023/08/03 10:25:51;;;;;;;4.32;0.90;;;20.30;77.20;;;;;;5034786;28;20124;-83
2023/08/03 10:28:17;;;;;;;2.00;0.80;;;19.70;78.80;;;;;;5033159;28;20024;-82
2023/08/03 10:31:05;;;;;;;4.75;0.90;;;19.30;79.20;;;;;;5033353;28;20029;-82
2023/08/03 10:33:55;;;;;;;3.25;0.80;;;19.00;80.50;;;;;;5034141;28;20414;-81
2023/08/03 10:36:29;;;;;;;3.60;0.98;;;19.40;80.40;;;;;;5026149;28;20068;-81
2023/08/03 10:39:07;;;;;;;3.72;1.02;;;19.40;79.40;;;;;;5031568;28;20029;-81
2023/08/03 10:41:50;;;;;;;5.53;1.10;;;19.10;80.00;;;;;;5036332;28;20434;-82
2023/08/03 10:44:20;;;;;;;7.13;1.13;;;18.80;81.20;;;;;;5036704;28;20030;-82
2023/08/03 10:46:47;;;;;;;4.30;0.82;;;18.50;81.40;;;;;;5033573;28;20017;-82
2023/08/03 10:49:23;;;;;;;3.47;0.88;;;18.30;82.40;;;;;;5035335;28;20021;-82
2023/08/03 10:51:49;;;;;;;2.95;0.85;;;18.30;82.40;;;;;;5037249;28;20026;-84
2023/08/03 10:54:16;;;;;;;3.47;1.08;;;18.20;82.70;;;;;;5036983;28;20025;-82
2023/08/03 10:57:02;;;;;;;3.97;0.93;;;18.10;83.30;;;;;;5037749;28;20037;-83
2023/08/03 10:59:29;;;;;;;2.83;0.88;;;18.30;83.60;;;;;;5031194;28;20431;-83
2023/08/03 11:01:54;;;;;;;3.60;1.02;;;18.30;83.60;;;;;;5035541;28;20500;-83
2023/08/03 11:04:23;;;;;;;4.47;0.85;;;18.60;82.80;;;;;;5035469;28;20104;-83
2023/08/03 11:06:51;;;;;;;3.65;0.80;;;18.80;82.40;;;;;;5035886;28;20042;-83
2023/08/03 11:09:16;;;;;;;3.90;0.90;;;18.70;83.00;;;;;;5032439;28;20407;-83
2023/08/03 11:11:45;;;;;;;4.28;1.00;;;18.90;83.20;;;;;;5030404;28;20025;-83
2023/08/03 11:14:10;;;;;;;4.07;0.77;;;19.10;82.30;;;;;;5028731;28;20082;-83
2023/08/03 11:16:36;;;;;;;4.03;1.00;;;19.20;82.50;;;;;;5031781;28;20034;-83
2023/08/03 11:19:02;;;;;;;3.42;0.88;;;19.80;82.10;;;;;;5028377;28;20029;-83
2023/08/03 11:21:27;;;;;;;2.80;0.73;;;20.50;79.40;;;;;;5035184;28;20029;-83
2023/08/03 11:23:53;;;;;;;3.00;0.75;;;21.00;77.80;;;;;;5034798;28;20291;-82
2023/08/03 11:26:23;;;;;;;5.63;0.90;;;21.00;76.00;;;;;;5029376;28;20029;-82
2023/08/03 11:28:48;;;;;;;4.10;0.95;;;21.20;76.50;;;;;;5034229;28;20327;-83
2023/08/03 11:31:18;;;;;;;5.03;0.90;;;21.30;76.70;;;;;;5031350;28;20040;-83
2023/08/03 11:33:51;;;;;;;3.97;0.90;;;21.20;76.70;;;;;;5035599;28;20030;-82
2023/08/03 11:36:18;;;;;;;1.90;0.68;;;21.50;76.00;;;;;;5033587;28;20033;-83
2023/08/03 11:38:44;;;;;;;3.70;1.00;;;21.60;74.40;;;;;;5035982;28;20029;-82
2023/08/03 11:41:12;;;;;;;4.38;0.80;;;21.40;75.40;;;;;;5033725;28;20580;-82
2023/08/03 11:43:37;;;;;;;2.92;0.88;;;21.40;75.10;;;;;;5034351;28;20037;-82
2023/08/03 11:46:03;;;;;;;3.97;0.70;;;21.70;74.40;;;;;;5033728;28;20028;-82
2023/08/03 11:48:32;;;;;;;5.20;1.00;;;22.10;73.80;;;;;;5034942;28;20049;-82
2023/08/03 11:51:03;;;;;;;3.85;0.75;;;22.10;72.50;;;;;;5034386;28;20485;-85
2023/08/03 11:53:37;;;;;;;3.03;0.70;;;21.80;74.40;;;;;;5035412;28;20021;-85
2023/08/03 11:56:02;;;;;;;4.20;1.00;;;21.70;73.70;;;;;;5034830;28;20030;-84
2023/08/03 11:58:28;;;;;;;4.32;1.00;;;21.90;75.20;;;;;;5035284;28;20041;-85
2023/08/03 12:01:03;;;;;;;2.92;0.70;;;21.90;73.60;;;;;;5033819;28;20053;-85
2023/08/03 12:03:37;;;;;;;2.97;0.80;;;21.70;74.40;;;;;;5027596;28;20029;-84
2023/08/03 12:06:10;;;;;;;4.13;1.00;;;21.60;75.10;;;;;;5033304;28;20277;-84
2023/08/03 12:08:43;;;;;;;4.87;0.90;;;21.30;75.30;;;;;;5035491;28;20422;-84
2023/08/03 12:11:08;;;;;;;4.63;1.00;;;21.00;75.40;;;;;;5035824;28;20268;-84
2023/08/03 12:13:34;;;;;;;4.40;1.00;;;21.20;75.40;;;;;;5036533;28;20032;-84
2023/08/03 12:16:00;;;;;;;2.92;0.80;;;21.40;76.10;;;;;;5033910;28;20037;-83
2023/08/03 12:18:25;;;;;;;4.15;1.05;;;22.00;75.40;;;;;;5036417;28;20032;-84
2023/08/03 12:20:51;;;;;;;3.88;1.17;;;21.80;74.50;;;;;;5032442;28;20051;-84
2023/08/03 12:23:17;;;;;;;4.43;0.93;;;21.50;75.10;;;;;;5034946;28;20033;-83
2023/08/03 12:25:43;;;;;;;3.08;0.70;;;21.80;75.90;;;;;;5030526;28;20442;-84
2023/08/03 12:28:09;;;;;;;3.25;0.82;;;22.50;75.20;;;;;;5036137;28;20036;-84
2023/08/03 12:30:35;;;;;;;4.03;0.90;;;22.30;74.30;;;;;;5030154;28;20079;-85
2023/08/03 12:33:00;;;;;;;3.78;0.80;;;21.40;75.60;;;;;;5034202;28;20091;-84
2023/08/03 12:35:27;;;;;;;4.65;1.10;;;20.80;77.70;;;;;;5030977;28;20425;-84
2023/08/03 12:37:53;;;;;;;3.33;0.70;;;20.50;78.50;;;;;;5036960;28;20032;-84
2023/08/03 12:40:18;;;;;;;5.38;1.50;;;20.60;78.30;;;;;;5032819;28;20029;-84
2023/08/03 12:42:44;;;;;;;2.40;0.80;;;20.90;77.20;;;;;;5035455;28;20037;-84
2023/08/03 12:45:10;;;;;;;4.18;0.73;;;21.40;76.80;;;;;;5035649;28;20065;-84